Terminal Aerodrome Forecast
Issued by NWS

Current Version | Previous Version | Text Only | Print | Product List | Glossary On
Versions: 1 2 3 4 5 6 7 8 9 10 11 12
434
FTUS44 KLIX 162330
TAFMCB
TAF
KMCB 162330Z 1700/1724 12005KT P6SM SCT026 BKN130
     FM170700 13007KT P6SM BKN030 OVC130 PROB30 1709/1712 4SM -SHRA
      OVC008
     FM171200 14007KT 3SM SHRA BKN008 OVC070
     FM171700 13005KT 2SM SHRA BKN008 OVC120
     FM171800 14005KT P6SM BKN010 OVC090 PROB30 1718/1724 1SM SHRA=

USA.gov is the U.S. government's official web portal to all federal, state and local government web resources and services.